createdAt,value
2017-10-04T00:00:57.100Z,5.00
2017-10-04T00:03:25.765Z,4.90
2017-10-04T00:05:55.265Z,4.90
2017-10-04T00:08:23.930Z,4.90
2017-10-04T00:10:52.614Z,4.80
2017-10-04T00:13:21.377Z,4.90
2017-10-04T00:15:50.086Z,4.90
2017-10-04T00:18:18.765Z,4.90
2017-10-04T00:20:47.457Z,4.80
2017-10-04T00:23:16.178Z,4.80
2017-10-04T00:25:45.645Z,4.80
2017-10-04T00:28:14.337Z,4.80
2017-10-04T00:30:43.019Z,4.80
2017-10-04T00:33:11.718Z,4.80
2017-10-04T00:35:40.438Z,4.70
2017-10-04T00:38:09.914Z,4.70
2017-10-04T00:40:38.610Z,4.60
2017-10-04T00:43:07.288Z,4.70
2017-10-04T00:45:35.983Z,4.60
2017-10-04T00:48:04.774Z,4.60
2017-10-04T00:50:34.242Z,4.60
2017-10-04T00:53:02.936Z,4.60
2017-10-04T00:55:30.954Z,4.60
2017-10-04T00:58:00.053Z,4.50
2017-10-04T01:00:28.753Z,4.50
2017-10-04T01:02:57.432Z,4.50
2017-10-04T01:05:26.095Z,4.40
2017-10-04T01:07:54.862Z,4.40
2017-10-04T01:10:23.188Z,4.30
2017-10-04T01:12:51.877Z,4.20
2017-10-04T01:15:20.610Z,4.10
2017-10-04T01:17:49.286Z,4.10
2017-10-04T01:20:17.987Z,4.10
2017-10-04T01:22:46.771Z,4.00
2017-10-04T01:25:15.497Z,4.10
2017-10-04T01:27:44.191Z,4.10
2017-10-04T01:30:13.665Z,4.10
2017-10-04T01:32:42.385Z,4.10
2017-10-04T01:35:11.834Z,4.10
2017-10-04T01:37:40.570Z,4.10
2017-10-04T01:40:09.266Z,4.00
2017-10-04T01:42:38.930Z,4.00
2017-10-04T01:45:07.657Z,4.00
2017-10-04T01:47:37.094Z,4.00
2017-10-04T01:50:05.758Z,4.00
2017-10-04T01:52:35.216Z,4.00
2017-10-04T01:55:04.116Z,4.00
2017-10-04T01:57:32.782Z,3.90
2017-10-04T02:00:01.477Z,3.90
2017-10-04T02:02:30.165Z,3.80
2017-10-04T02:05:04.898Z,3.90
2017-10-04T02:07:33.570Z,3.90
2017-10-04T02:10:02.278Z,3.80
2017-10-04T02:12:30.978Z,3.80
2017-10-04T02:14:59.646Z,3.80
2017-10-04T02:17:28.335Z,3.80
2017-10-04T02:19:57.058Z,3.90
2017-10-04T02:22:25.748Z,3.90
2017-10-04T02:24:55.191Z,3.80
2017-10-04T02:27:23.893Z,3.80
2017-10-04T02:29:52.592Z,3.90
2017-10-04T02:32:21.334Z,3.90
2017-10-04T02:34:50.234Z,3.80
2017-10-04T02:37:18.903Z,3.80
2017-10-04T02:39:47.594Z,3.70
2017-10-04T02:42:16.263Z,3.60
2017-10-04T02:44:44.938Z,3.50
2017-10-04T02:47:13.632Z,3.50
2017-10-04T02:49:42.309Z,3.50
2017-10-04T02:52:11.008Z,3.60
2017-10-04T02:54:42.045Z,3.60
2017-10-04T02:57:11.734Z,3.60
2017-10-04T02:59:40.414Z,3.60
2017-10-04T03:02:09.144Z,3.60
2017-10-04T03:04:38.582Z,3.60
2017-10-04T03:07:07.274Z,3.50
2017-10-04T03:09:36.014Z,3.50
2017-10-04T03:12:04.685Z,3.50
2017-10-04T03:14:33.358Z,3.50
2017-10-04T03:17:02.283Z,3.40
2017-10-04T03:19:30.969Z,3.40
2017-10-04T03:22:00.438Z,3.30
2017-10-04T03:24:28.771Z,3.30
2017-10-04T03:26:58.234Z,3.30
2017-10-04T03:29:26.910Z,3.30
2017-10-04T03:31:55.639Z,3.40
2017-10-04T03:34:24.394Z,3.30
2017-10-04T03:36:53.124Z,3.40
2017-10-04T03:39:22.594Z,3.30
2017-10-04T03:41:51.275Z,3.30
2017-10-04T03:44:19.945Z,3.30
2017-10-04T03:46:48.313Z,3.30
2017-10-04T03:49:16.997Z,3.30
2017-10-04T03:51:45.686Z,3.30
2017-10-04T03:54:14.370Z,3.40
2017-10-04T03:56:43.070Z,3.30
2017-10-04T03:59:11.742Z,3.30
2017-10-04T04:01:40.434Z,3.30
2017-10-04T04:04:09.109Z,3.30
2017-10-04T04:06:37.806Z,3.20
2017-10-04T04:09:06.530Z,3.20
2017-10-04T04:11:34.869Z,3.20
2017-10-04T04:14:03.538Z,3.20
2017-10-04T04:16:32.217Z,3.10
2017-10-04T04:19:01.646Z,3.10
2017-10-04T04:21:30.318Z,3.10
2017-10-04T04:23:59.014Z,3.10
2017-10-04T04:26:27.686Z,3.10
2017-10-04T04:28:56.178Z,3.10
2017-10-04T04:31:24.886Z,3.00
2017-10-04T04:33:53.566Z,3.00
2017-10-04T04:36:22.227Z,3.00
2017-10-04T04:38:59.983Z,3.00
2017-10-04T04:41:28.666Z,3.00
2017-10-04T04:43:57.380Z,2.90
2017-10-04T04:46:26.083Z,2.90
2017-10-04T04:48:54.759Z,2.90
2017-10-04T04:51:24.208Z,2.80
2017-10-04T04:53:52.895Z,2.80
2017-10-04T04:56:21.569Z,2.80
2017-10-04T04:58:50.247Z,2.70
2017-10-04T05:01:18.950Z,2.80
2017-10-04T05:03:47.661Z,2.80
2017-10-04T05:06:16.350Z,2.90
2017-10-04T05:08:45.035Z,2.90
2017-10-04T05:11:13.764Z,2.90
2017-10-04T05:13:43.282Z,3.10
2017-10-04T05:16:12.015Z,3.20
2017-10-04T05:18:40.447Z,3.20
2017-10-04T05:21:09.509Z,3.20
2017-10-04T05:23:38.273Z,3.40
2017-10-04T05:26:07.074Z,3.40
2017-10-04T05:28:35.795Z,3.40
2017-10-04T05:37:31.092Z,3.90
2017-10-04T05:43:08.409Z,4.10
2017-10-04T05:45:37.131Z,4.10
2017-10-04T05:48:05.882Z,4.20
2017-10-04T05:50:34.647Z,4.30
2017-10-04T05:53:04.237Z,4.40
2017-10-04T05:55:33.033Z,4.50
2017-10-04T05:58:01.812Z,4.70
2017-10-04T06:00:31.300Z,5.00
2017-10-04T06:03:00.023Z,4.90
2017-10-04T06:05:29.527Z,5.40
2017-10-04T06:07:58.266Z,5.40
2017-10-04T06:10:27.742Z,6.10
2017-10-04T06:12:56.483Z,6.10
2017-10-04T06:15:26.004Z,6.50
2017-10-04T06:17:55.609Z,6.80
2017-10-04T06:20:25.226Z,7.10
2017-10-04T06:22:54.732Z,7.20
2017-10-04T06:25:24.256Z,7.10
2017-10-04T06:27:53.081Z,7.10
2017-10-04T06:30:22.110Z,7.10
2017-10-04T06:32:51.819Z,7.40
2017-10-04T06:35:21.457Z,7.80
2017-10-04T06:37:50.294Z,7.70
2017-10-04T06:40:19.069Z,8.30
2017-10-04T06:42:49.099Z,8.60
2017-10-04T06:45:17.626Z,8.80
2017-10-04T06:47:46.144Z,9.00
2017-10-04T06:50:14.664Z,9.20
2017-10-04T06:52:43.196Z,9.50
2017-10-04T06:55:11.518Z,9.70
2017-10-04T06:57:40.015Z,10.00
2017-10-04T07:00:08.722Z,10.30
2017-10-04T07:02:37.855Z,11.30
2017-10-04T07:05:09.061Z,11.80
2017-10-04T07:07:37.784Z,12.00
2017-10-04T07:10:06.309Z,11.90
2017-10-04T07:12:34.827Z,12.20
2017-10-04T07:15:03.288Z,12.00
2017-10-04T07:17:31.781Z,11.70
2017-10-04T07:20:00.244Z,11.70
2017-10-04T07:22:28.870Z,11.80
2017-10-04T07:24:57.364Z,12.00
2017-10-04T07:27:25.550Z,12.10
2017-10-04T07:29:54.228Z,12.40
2017-10-04T07:32:22.773Z,12.10
2017-10-04T07:34:51.298Z,12.50
2017-10-04T07:37:19.794Z,12.70
2017-10-04T07:39:48.111Z,13.40
2017-10-04T07:42:16.567Z,14.10
2017-10-04T07:44:45.786Z,16.50
2017-10-04T07:47:14.303Z,16.50
2017-10-04T07:49:42.630Z,17.10
2017-10-04T07:52:11.082Z,17.50
2017-10-04T07:54:39.550Z,17.10
2017-10-04T07:57:07.986Z,17.70
2017-10-04T07:59:36.504Z,18.40
2017-10-04T08:02:04.956Z,18.20
2017-10-04T08:04:33.473Z,17.90
2017-10-04T08:07:01.925Z,18.90
2017-10-04T08:09:30.371Z,19.50
2017-10-04T08:11:58.818Z,20.60
2017-10-04T08:14:27.284Z,21.80
2017-10-04T08:16:55.719Z,23.40
2017-10-04T08:19:24.209Z,24.90
2017-10-04T08:21:52.713Z,24.70
2017-10-04T08:24:21.173Z,25.30
2017-10-04T08:26:50.374Z,26.30
2017-10-04T08:29:18.817Z,26.20
2017-10-04T08:31:47.037Z,26.10
2017-10-04T08:34:15.482Z,26.40
2017-10-04T08:36:43.966Z,26.50
2017-10-04T08:39:12.399Z,27.80
2017-10-04T08:41:40.819Z,27.20
2017-10-04T08:44:09.241Z,27.40
2017-10-04T08:46:37.717Z,28.20
2017-10-04T08:49:06.938Z,27.80
2017-10-04T08:51:35.413Z,27.70
2017-10-04T08:54:03.882Z,26.70
2017-10-04T08:56:32.305Z,27.50
2017-10-04T08:59:00.806Z,27.60
2017-10-04T09:01:29.210Z,28.60
2017-10-04T09:03:57.297Z,29.20
2017-10-04T09:06:26.550Z,29.80
2017-10-04T09:08:54.964Z,29.70
2017-10-04T09:11:23.377Z,31.00
2017-10-04T09:13:51.842Z,30.60
2017-10-04T09:16:21.018Z,30.80
2017-10-04T09:18:49.426Z,30.80
2017-10-04T09:21:17.889Z,30.90
2017-10-04T09:23:46.335Z,30.40
2017-10-04T09:26:14.742Z,30.60
2017-10-04T09:28:43.152Z,31.00
2017-10-04T09:31:11.600Z,30.70
2017-10-04T09:33:40.020Z,31.20
2017-10-04T09:36:09.207Z,30.00
2017-10-04T09:38:38.403Z,30.20
2017-10-04T09:41:07.585Z,29.60
2017-10-04T09:43:36.021Z,29.60
2017-10-04T09:46:04.489Z,29.30
2017-10-04T09:48:32.898Z,30.00
2017-10-04T09:51:01.305Z,29.70
2017-10-04T09:53:29.745Z,29.40
2017-10-04T09:55:58.187Z,29.60
2017-10-04T09:58:27.386Z,30.40
2017-10-04T10:00:56.444Z,30.70
2017-10-04T10:03:24.911Z,30.60
2017-10-04T10:05:53.327Z,30.10
2017-10-04T10:08:21.786Z,30.20
2017-10-04T10:10:50.247Z,29.60
2017-10-04T10:13:18.669Z,29.90
2017-10-04T10:15:47.110Z,30.20
2017-10-04T10:18:15.523Z,30.30
2017-10-04T10:20:43.942Z,31.00
2017-10-04T10:23:13.130Z,30.10
2017-10-04T10:25:42.305Z,30.80
2017-10-04T10:28:10.720Z,30.80
2017-10-04T10:30:39.152Z,31.80
2017-10-04T10:33:07.557Z,30.40
2017-10-04T10:35:35.975Z,30.60
2017-10-04T10:38:04.435Z,30.20
2017-10-04T10:40:32.838Z,30.00
2017-10-04T10:43:01.243Z,30.60
2017-10-04T10:45:29.664Z,31.40
2017-10-04T10:47:58.143Z,30.00
2017-10-04T10:50:26.560Z,29.60
2017-10-04T10:52:54.965Z,30.20
2017-10-04T10:55:23.420Z,29.10
2017-10-04T10:57:51.825Z,28.80
2017-10-04T11:00:20.240Z,28.40
2017-10-04T11:02:48.509Z,27.50
2017-10-04T11:05:16.923Z,27.80
2017-10-04T11:07:46.098Z,27.10
2017-10-04T11:10:14.529Z,27.00
2017-10-04T11:12:42.753Z,26.30
2017-10-04T11:15:11.176Z,25.60
2017-10-04T11:17:39.669Z,25.40
2017-10-04T11:20:08.088Z,25.70
2017-10-04T11:22:36.509Z,25.60
2017-10-04T11:25:04.939Z,26.60
2017-10-04T11:27:33.347Z,27.20
2017-10-04T11:30:02.531Z,27.80
2017-10-04T11:32:30.972Z,27.80
2017-10-04T11:34:59.387Z,27.60
2017-10-04T11:37:27.797Z,28.10
2017-10-04T11:39:57.006Z,27.90
2017-10-04T11:42:26.179Z,28.60
2017-10-04T11:44:54.581Z,28.60
2017-10-04T11:47:23.778Z,28.80
2017-10-04T11:49:52.216Z,28.80
2017-10-04T11:52:20.622Z,28.30
2017-10-04T11:54:49.054Z,28.10
2017-10-04T11:57:17.684Z,27.90
2017-10-04T11:59:46.095Z,27.70
2017-10-04T12:02:14.578Z,27.80
2017-10-04T12:04:43.756Z,28.80
2017-10-04T12:07:12.962Z,27.40
2017-10-04T12:09:42.172Z,27.30
2017-10-04T12:12:10.601Z,27.30
2017-10-04T12:14:39.049Z,27.10
2017-10-04T12:17:07.469Z,26.20
2017-10-04T12:19:35.881Z,26.80
2017-10-04T12:22:05.088Z,27.50
2017-10-04T12:24:33.532Z,27.50
2017-10-04T12:27:01.962Z,27.60
2017-10-04T12:29:30.429Z,27.60
2017-10-04T12:31:58.845Z,27.60
2017-10-04T12:34:27.263Z,28.10
2017-10-04T12:36:55.756Z,28.50
2017-10-04T12:39:24.168Z,28.40
2017-10-04T12:41:53.343Z,29.50
2017-10-04T12:44:21.787Z,29.50
2017-10-04T12:46:50.194Z,29.70
2017-10-04T12:49:18.600Z,30.00
2017-10-04T12:51:47.793Z,29.30
2017-10-04T12:54:17.018Z,29.70
2017-10-04T12:56:45.434Z,29.60
2017-10-04T12:59:13.858Z,28.80
2017-10-04T13:01:43.076Z,27.90
2017-10-04T13:04:11.489Z,27.90
2017-10-04T13:06:39.899Z,27.90
2017-10-04T13:09:08.322Z,28.60
2017-10-04T13:11:36.733Z,28.70
2017-10-04T13:14:05.153Z,26.90
2017-10-04T13:16:34.381Z,26.50
2017-10-04T13:19:02.794Z,26.50
2017-10-04T13:21:31.217Z,26.70
2017-10-04T13:24:00.393Z,26.10
2017-10-04T13:26:28.809Z,26.10
2017-10-04T13:28:57.918Z,26.20
2017-10-04T13:31:26.341Z,25.70
2017-10-04T13:33:54.743Z,25.20
2017-10-04T13:36:23.168Z,24.50
2017-10-04T13:38:51.563Z,24.10
2017-10-04T13:41:19.977Z,23.60
2017-10-04T13:43:48.215Z,23.40
2017-10-04T13:46:16.450Z,23.30
2017-10-04T13:48:44.673Z,23.30
2017-10-04T13:51:13.313Z,23.20
2017-10-04T13:53:41.541Z,22.80
2017-10-04T13:56:10.530Z,22.60
2017-10-04T13:58:39.001Z,22.60
2017-10-04T14:01:07.406Z,22.10
2017-10-04T14:03:35.935Z,21.60
2017-10-04T14:06:04.381Z,21.40
2017-10-04T14:08:32.697Z,21.20
2017-10-04T14:11:01.886Z,21.50
2017-10-04T14:13:30.379Z,21.50
2017-10-04T14:15:58.462Z,21.50
2017-10-04T14:18:26.967Z,21.80
2017-10-04T14:20:55.392Z,22.40
2017-10-04T14:23:23.801Z,22.60
2017-10-04T14:25:52.278Z,22.80
2017-10-04T14:28:21.513Z,22.40
2017-10-04T14:30:49.950Z,22.40
2017-10-04T14:33:18.442Z,22.10
2017-10-04T14:35:46.906Z,22.10
2017-10-04T14:38:16.174Z,22.20
2017-10-04T14:40:44.630Z,22.20
2017-10-04T14:43:13.142Z,22.10
2017-10-04T14:45:41.592Z,21.80
2017-10-04T14:48:10.081Z,21.40
2017-10-04T14:50:38.525Z,21.20
2017-10-04T14:53:07.270Z,20.50
2017-10-04T14:55:35.763Z,20.00
2017-10-04T14:58:04.217Z,19.50
2017-10-04T15:00:32.642Z,19.20
2017-10-04T15:03:01.114Z,18.90
2017-10-04T15:05:29.599Z,18.60
2017-10-04T15:07:58.083Z,18.60
2017-10-04T15:10:27.376Z,18.20
2017-10-04T15:12:55.867Z,18.20
2017-10-04T15:15:24.314Z,18.30
2017-10-04T15:17:52.845Z,18.10
2017-10-04T15:20:21.377Z,17.90
2017-10-04T15:22:50.060Z,17.70
2017-10-04T15:25:18.567Z,17.50
2017-10-04T15:27:47.075Z,17.30
2017-10-04T15:30:15.619Z,17.10
2017-10-04T15:32:44.110Z,17.10
2017-10-04T15:35:12.630Z,17.00
2017-10-04T15:37:41.914Z,16.70
2017-10-04T15:40:10.423Z,16.70
2017-10-04T15:42:38.859Z,16.60
2017-10-04T15:45:07.514Z,16.30
2017-10-04T15:47:35.989Z,16.10
2017-10-04T15:50:04.504Z,15.90
2017-10-04T15:52:32.974Z,15.90
2017-10-04T15:55:01.271Z,15.80
2017-10-04T15:57:29.715Z,15.60
2017-10-04T15:59:58.372Z,15.50
2017-10-04T16:02:27.643Z,15.30
2017-10-04T16:04:55.992Z,15.30
2017-10-04T16:07:24.477Z,15.20
2017-10-04T16:09:52.936Z,15.10
2017-10-04T16:12:21.497Z,15.00
2017-10-04T16:14:50.705Z,14.80
2017-10-04T16:17:19.912Z,14.60
2017-10-04T16:19:48.406Z,14.60
2017-10-04T16:22:16.834Z,14.50
2017-10-04T16:24:45.273Z,14.40
2017-10-04T16:27:13.575Z,14.30
2017-10-04T16:29:42.003Z,14.20
2017-10-04T16:32:11.221Z,14.10
2017-10-04T16:34:39.730Z,14.00
2017-10-04T16:37:08.181Z,13.90
2017-10-04T16:39:36.598Z,13.90
2017-10-04T16:42:05.040Z,13.80
2017-10-04T16:44:33.605Z,13.70
2017-10-04T16:47:02.179Z,13.60
2017-10-04T16:49:30.615Z,13.40
2017-10-04T16:51:59.798Z,13.30
2017-10-04T16:54:28.246Z,13.20
2017-10-04T16:56:56.734Z,13.00
2017-10-04T16:59:25.162Z,12.90
2017-10-04T17:01:54.135Z,12.70
2017-10-04T17:04:22.577Z,12.70
2017-10-04T17:06:50.985Z,12.60
2017-10-04T17:09:20.182Z,12.40
2017-10-04T17:11:48.685Z,12.30
2017-10-04T17:14:17.125Z,12.20
2017-10-04T17:16:46.341Z,12.10
2017-10-04T17:19:15.575Z,12.20
2017-10-04T17:21:43.989Z,12.20
2017-10-04T17:24:12.427Z,12.10
2017-10-04T17:26:40.892Z,12.10
2017-10-04T17:29:09.353Z,12.00
2017-10-04T17:31:37.798Z,12.00
2017-10-04T17:34:06.238Z,11.80
2017-10-04T17:36:35.487Z,11.70
2017-10-04T17:39:03.431Z,11.70
2017-10-04T17:41:31.899Z,11.70
2017-10-04T17:44:00.346Z,11.70
2017-10-04T17:46:29.549Z,11.70
2017-10-04T17:48:58.013Z,11.70
2017-10-04T17:51:26.462Z,11.60
2017-10-04T17:53:54.945Z,11.60
2017-10-04T17:56:23.383Z,11.60
2017-10-04T17:58:51.843Z,11.70
2017-10-04T18:01:20.310Z,11.60
2017-10-04T18:03:48.757Z,11.50
2017-10-04T18:06:17.286Z,11.40
2017-10-04T18:08:45.806Z,11.40
2017-10-04T18:11:15.062Z,11.30
2017-10-04T18:13:43.498Z,11.30
2017-10-04T18:16:12.003Z,11.30
2017-10-04T18:18:40.429Z,11.10
2017-10-04T18:21:09.654Z,11.10
2017-10-04T18:23:38.003Z,11.10
2017-10-04T18:26:06.497Z,11.00
2017-10-04T18:28:35.744Z,10.90
2017-10-04T18:31:04.266Z,10.90
2017-10-04T18:33:32.719Z,10.90
2017-10-04T18:36:01.191Z,10.90
2017-10-04T18:38:30.290Z,10.70
2017-10-04T18:40:58.806Z,10.70
2017-10-04T18:43:27.357Z,10.70
2017-10-04T18:45:55.833Z,10.60
2017-10-04T18:48:24.134Z,10.60
2017-10-04T18:50:52.611Z,10.50
2017-10-04T18:53:21.081Z,10.50
2017-10-04T18:55:49.561Z,10.30
2017-10-04T18:58:18.020Z,10.30
2017-10-04T19:00:46.323Z,10.10
2017-10-04T19:03:14.896Z,10.00
2017-10-04T19:05:43.373Z,10.00
2017-10-04T19:08:11.871Z,10.00
2017-10-04T19:10:40.434Z,9.90
2017-10-04T19:13:08.893Z,9.80
2017-10-04T19:15:38.137Z,9.70
2017-10-04T19:18:06.632Z,9.60
2017-10-04T19:20:35.117Z,9.60
2017-10-04T19:23:03.579Z,9.60
2017-10-04T19:25:32.094Z,9.60
2017-10-04T19:28:00.586Z,9.60
2017-10-04T19:30:29.065Z,9.50
2017-10-04T19:32:57.386Z,9.50
2017-10-04T19:35:25.855Z,9.50
2017-10-04T19:37:55.156Z,9.50
2017-10-04T19:40:23.695Z,9.50
2017-10-04T19:42:52.227Z,9.40
2017-10-04T19:45:20.946Z,9.40
2017-10-04T19:47:49.499Z,9.40
2017-10-04T19:50:17.970Z,9.30
2017-10-04T19:52:46.488Z,9.30
2017-10-04T19:55:14.978Z,9.20
2017-10-04T19:57:43.453Z,9.20
2017-10-04T20:00:11.924Z,9.20
2017-10-04T20:02:40.434Z,9.20
2017-10-04T20:05:09.192Z,9.20
2017-10-04T20:07:37.651Z,9.20
2017-10-04T20:10:06.098Z,9.20
2017-10-04T20:12:34.538Z,9.20
2017-10-04T20:15:03.015Z,9.10
2017-10-04T20:17:31.428Z,9.20
2017-10-04T20:19:59.895Z,9.40
2017-10-04T20:22:29.374Z,9.50
2017-10-04T20:24:58.090Z,9.50
2017-10-04T20:27:26.527Z,9.50
2017-10-04T20:29:55.054Z,9.50
2017-10-04T20:32:23.521Z,9.50
2017-10-04T20:34:51.930Z,9.60
2017-10-04T20:37:20.443Z,9.70
2017-10-04T20:39:50.410Z,9.70
2017-10-04T20:42:18.885Z,9.60
2017-10-04T20:44:47.342Z,9.50
2017-10-04T20:47:16.601Z,9.20
2017-10-04T20:49:45.583Z,9.20
2017-10-04T20:52:14.025Z,9.20
2017-10-04T20:54:43.536Z,9.10
2017-10-04T20:57:11.963Z,9.10
2017-10-04T20:59:40.402Z,9.10
2017-10-04T21:02:08.842Z,9.00
2017-10-04T21:04:37.640Z,8.90
2017-10-04T21:07:06.077Z,8.90
2017-10-04T21:09:34.612Z,8.80
2017-10-04T21:12:03.850Z,8.70
2017-10-04T21:14:33.049Z,8.70
2017-10-04T21:17:01.515Z,8.60
2017-10-04T21:19:29.827Z,8.70
2017-10-04T21:21:58.816Z,8.80
2017-10-04T21:24:27.297Z,8.70
2017-10-04T21:26:57.474Z,8.80
2017-10-04T21:29:27.124Z,8.80
2017-10-04T21:31:56.597Z,8.70
2017-10-04T21:34:26.350Z,8.70
2017-10-04T21:36:55.122Z,8.80
2017-10-04T21:39:24.643Z,8.70
2017-10-04T21:41:53.385Z,8.70
2017-10-04T21:44:22.986Z,8.70
2017-10-04T21:46:51.746Z,8.70
2017-10-04T21:49:20.521Z,8.70
2017-10-04T21:51:50.125Z,8.80
2017-10-04T21:54:18.651Z,8.70
2017-10-04T21:56:47.914Z,8.90
2017-10-04T21:59:16.394Z,8.80
2017-10-04T22:01:44.831Z,8.80
2017-10-04T22:04:13.313Z,8.90
2017-10-04T22:06:42.061Z,8.90
2017-10-04T22:09:10.823Z,9.00
2017-10-04T22:11:39.590Z,9.00
2017-10-04T22:14:08.350Z,9.00
2017-10-04T22:16:37.043Z,8.90
2017-10-04T22:32:40.247Z,8.80
2017-10-04T22:35:08.991Z,8.90
2017-10-04T22:37:39.273Z,8.90
2017-10-04T22:40:11.208Z,9.00
2017-10-04T22:42:39.958Z,8.90
2017-10-04T22:45:09.113Z,8.90
2017-10-04T22:47:37.615Z,8.90
2017-10-04T22:50:06.286Z,9.00
2017-10-04T22:52:34.977Z,9.00
2017-10-04T22:55:03.865Z,9.10
2017-10-04T22:57:32.326Z,9.10
2017-10-04T23:00:00.821Z,9.20
2017-10-04T23:02:30.052Z,9.20
2017-10-04T23:04:58.519Z,9.20
2017-10-04T23:07:27.001Z,9.30
2017-10-04T23:09:55.533Z,9.30
2017-10-04T23:12:24.023Z,9.30
2017-10-04T23:14:52.516Z,9.30
2017-10-04T23:17:21.371Z,9.30
2017-10-04T23:19:49.874Z,9.40
2017-10-04T23:22:18.228Z,9.40
2017-10-04T23:24:46.751Z,9.50
2017-10-04T23:27:15.210Z,9.50
2017-10-04T23:29:43.674Z,9.50
2017-10-04T23:32:12.149Z,9.60
2017-10-04T23:34:40.642Z,9.70
2017-10-04T23:37:09.359Z,9.70
2017-10-04T23:39:37.911Z,9.80
2017-10-04T23:42:06.399Z,9.80
2017-10-04T23:44:35.056Z,9.80
2017-10-04T23:47:03.582Z,9.80
2017-10-04T23:49:32.065Z,9.70
2017-10-04T23:52:00.564Z,9.70
2017-10-04T23:54:29.054Z,9.70
2017-10-04T23:56:57.592Z,9.70
2017-10-04T23:59:26.115Z,9.60
